Terminal Aerodrome Forecast
Issued by NWS Lake Charles, LA

Home | Current Version | Previous Version | Text Only | Print | Product List | Glossary On
Versions: 1 2 3 4 5 6 7 8 9 10 11 12 13 14 15 16 17
000
FTUS44 KLCH 172152 AAA
TAFAEX
TAF AMD
KAEX 172152Z 1722/1818 32008KT P6SM VCSH BKN025
     FM180200 35006KT P6SM VCSH OVC007
     FM180700 VRB05KT 3SM BR OVC006
      TEMPO 1811/1815 1SM BR OVC003=

USA.gov is the U.S. government's official web portal to all federal, state and local government web resources and services.